メインページ
METAR-TAF:

METAR-TAF

空港 :

コルドバ, アルゼンチン

緯度: 31-19S, 経度: 064-13W, 海抜: 484m

現時点の気象観測

当レポートは47分前の11:00(UTC)に作成
北/北西の風 5kt
気温 5°C
湿度 93%
気圧 1024 hPa
視程10km以上
1,500メートル以下は雲なし、積乱雲なし

METAR: SACO 221100Z 33005KT CAVOK 05/04 Q1024 NOSIG

時間: 08:47 (11:47 UTC)

予報

当レポートは47分前の11:00(UTC)に作成
予報は22日の 12時(UTC)から 23日の 12時(UTC)まで有効
北西の風 5kt
視程10km以上
1,500メートル以下は雲なし、積乱雲なし
確率 30% :
22日の 13時(UTC)から 22日の 16時(UTC)まで一時的に
北/北東の風 10kt
視程10km以上
高度3000ftの雲は散在している
22日の 21時(UTC)から 23日の 00時(UTC)まで徐々に
北/北東の風 5kt
視程10km以上
1,500メートル以下は雲なし、積乱雲なし
23日の 09時(UTC)から 23日の 12時(UTC)まで徐々に
北/北東の風 10kt
視程10km以上
高度3000ftの雲は散在している

TAF: SACO 221100Z 2212/2312 32005KT CAVOK TX18/2218Z TN05/2310Z PROB30 TEMPO 2213/2216 02010KT 9999 SCT030 BECMG 2221/2300 02005KT CAVOK BECMG 2309/2312 02010KT 9999 SCT030

4,000以上の空港の気象観測と天気予報(METAR報とTAF報)

利用可能な観測所は地図上に黄色い丸と赤い丸で示す。

丸の上にカーソルを重ねると観測所名を参照できる。

次にクリックすると気象観測と天気予報を参照できる。

マップの切り替え:黒色「×」印の緑ボタンをクリックして拡大、「-」印の緑ボタンをクリックして縮小、緑色の三角印をクリックして隣りの地図に切り替え


METAR-TAF: